sensor_id;sensor_type;location;lat;lon;timestamp;pressure;altitude;pressure_sealevel;temperature;humidity
75650;BME280;64245;51.282;22.494;2024-01-06T00:01:47;98376.28;;;-2.69;100.00
75650;BME280;64245;51.282;22.494;2024-01-06T00:04:13;98363.03;;;-2.67;100.00
75650;BME280;64245;51.282;22.494;2024-01-06T00:06:39;98364.72;;;-2.66;100.00
75650;BME280;64245;51.282;22.494;2024-01-06T00:09:04;98355.88;;;-2.65;100.00
75650;BME280;64245;51.282;22.494;2024-01-06T00:11:30;98337.88;;;-2.73;100.00
75650;BME280;64245;51.282;22.494;2024-01-06T00:13:56;98358.19;;;-2.59;100.00
75650;BME280;64245;51.282;22.494;2024-01-06T00:16:21;98346.78;;;-2.60;100.00
75650;BME280;64245;51.282;22.494;2024-01-06T00:18:48;98345.94;;;-2.60;100.00
75650;BME280;64245;51.282;22.494;2024-01-06T00:21:14;98352.97;;;-2.45;100.00
75650;BME280;64245;51.282;22.494;2024-01-06T00:23:41;98350.69;;;-2.35;100.00
75650;BME280;64245;51.282;22.494;2024-01-06T00:26:07;98357.41;;;-2.46;100.00
75650;BME280;64245;51.282;22.494;2024-01-06T00:28:33;98349.56;;;-2.47;100.00
75650;BME280;64245;51.282;22.494;2024-01-06T00:30:59;98352.97;;;-2.45;100.00
75650;BME280;64245;51.282;22.494;2024-01-06T00:33:25;98363.34;;;-2.42;100.00
75650;BME280;64245;51.282;22.494;2024-01-06T00:35:50;98352.81;;;-2.42;100.00
75650;BME280;64245;51.282;22.494;2024-01-06T00:38:16;98338.28;;;-2.65;100.00
75650;BME280;64245;51.282;22.494;2024-01-06T00:40:42;98355.13;;;-2.52;100.00
75650;BME280;64245;51.282;22.494;2024-01-06T00:43:08;98349.09;;;-2.54;100.00
75650;BME280;64245;51.282;22.494;2024-01-06T00:45:34;98358.03;;;-2.56;100.00
75650;BME280;64245;51.282;22.494;2024-01-06T00:47:59;98357.00;;;-2.54;100.00
75650;BME280;64245;51.282;22.494;2024-01-06T00:50:25;98363.97;;;-2.53;100.00
75650;BME280;64245;51.282;22.494;2024-01-06T00:52:51;98375.16;;;-2.49;100.00
75650;BME280;64245;51.282;22.494;2024-01-06T00:55:21;98372.66;;;-2.51;100.00
75650;BME280;64245;51.282;22.494;2024-01-06T00:57:46;98366.41;;;-2.50;100.00
75650;BME280;64245;51.282;22.494;2024-01-06T01:00:12;98362.28;;;-2.54;100.00
75650;BME280;64245;51.282;22.494;2024-01-06T01:02:38;98375.78;;;-2.44;100.00
75650;BME280;64245;51.282;22.494;2024-01-06T01:05:04;98365.31;;;-2.46;100.00
75650;BME280;64245;51.282;22.494;2024-01-06T01:07:30;98363.97;;;-2.37;100.00
75650;BME280;64245;51.282;22.494;2024-01-06T01:09:56;98360.63;;;-2.40;100.00
75650;BME280;64245;51.282;22.494;2024-01-06T01:12:23;98360.31;;;-2.34;100.00
75650;BME280;64245;51.282;22.494;2024-01-06T01:14:50;98353.16;;;-2.32;100.00
75650;BME280;64245;51.282;22.494;2024-01-06T01:17:16;98356.03;;;-2.37;100.00
75650;BME280;64245;51.282;22.494;2024-01-06T01:19:45;98346.09;;;-2.32;100.00
75650;BME280;64245;51.282;22.494;2024-01-06T01:22:11;98348.63;;;-2.30;100.00
75650;BME280;64245;51.282;22.494;2024-01-06T01:24:37;98334.97;;;-2.37;100.00
75650;BME280;64245;51.282;22.494;2024-01-06T01:27:02;98339.63;;;-2.42;100.00
75650;BME280;64245;51.282;22.494;2024-01-06T01:29:28;98346.84;;;-2.30;100.00
75650;BME280;64245;51.282;22.494;2024-01-06T01:31:54;98351.13;;;-2.43;100.00
75650;BME280;64245;51.282;22.494;2024-01-06T01:34:20;98361.66;;;-2.43;100.00
75650;BME280;64245;51.282;22.494;2024-01-06T01:36:45;98346.78;;;-2.44;100.00
75650;BME280;64245;51.282;22.494;2024-01-06T01:39:11;98357.16;;;-2.41;100.00
75650;BME280;64245;51.282;22.494;2024-01-06T01:41:37;98366.84;;;-2.41;100.00
75650;BME280;64245;51.282;22.494;2024-01-06T01:44:03;98366.84;;;-2.41;100.00
75650;BME280;64245;51.282;22.494;2024-01-06T01:46:30;98371.53;;;-2.47;100.00
75650;BME280;64245;51.282;22.494;2024-01-06T01:48:57;98373.13;;;-2.44;100.00
75650;BME280;64245;51.282;22.494;2024-01-06T01:51:28;98361.91;;;-2.48;100.00
75650;BME280;64245;51.282;22.494;2024-01-06T01:53:56;98362.69;;;-2.46;100.00
75650;BME280;64245;51.282;22.494;2024-01-06T01:56:23;98371.78;;;-2.35;100.00
75650;BME280;64245;51.282;22.494;2024-01-06T01:58:50;98372.53;;;-2.33;100.00
75650;BME280;64245;51.282;22.494;2024-01-06T02:01:16;98368.38;;;-2.37;100.00
75650;BME280;64245;51.282;22.494;2024-01-06T02:03:43;98358.31;;;-2.31;100.00
75650;BME280;64245;51.282;22.494;2024-01-06T02:06:12;98356.81;;;-2.35;100.00
75650;BME280;64245;51.282;22.494;2024-01-06T02:08:38;98361.50;;;-2.40;100.00
75650;BME280;64245;51.282;22.494;2024-01-06T02:11:04;98349.50;;;-2.46;100.00
75650;BME280;64245;51.282;22.494;2024-01-06T02:13:34;98355.19;;;-2.37;100.00
75650;BME280;64245;51.282;22.494;2024-01-06T02:16:04;98370.56;;;-2.30;100.00
75650;BME280;64245;51.282;22.494;2024-01-06T02:18:31;98359.44;;;-2.35;100.00
75650;BME280;64245;51.282;22.494;2024-01-06T02:20:58;98356.53;;;-2.30;100.00
75650;BME280;64245;51.282;22.494;2024-01-06T02:23:25;98356.53;;;-2.30;100.00
75650;BME280;64245;51.282;22.494;2024-01-06T02:25:51;98360.63;;;-2.40;100.00
75650;BME280;64245;51.282;22.494;2024-01-06T02:28:17;98354.84;;;-2.31;100.00
75650;BME280;64245;51.282;22.494;2024-01-06T02:30:43;98347.97;;;-2.34;100.00
75650;BME280;64245;51.282;22.494;2024-01-06T02:33:09;98348.63;;;-2.30;100.00
75650;BME280;64245;51.282;22.494;2024-01-06T02:35:34;98347.28;;;-2.37;100.00
75650;BME280;64245;51.282;22.494;2024-01-06T02:38:00;98335.03;;;-2.38;100.00
75650;BME280;64245;51.282;22.494;2024-01-06T02:40:26;98333.66;;;-2.30;100.00
75650;BME280;64245;51.282;22.494;2024-01-06T02:42:52;98324.31;;;-2.35;100.00
75650;BME280;64245;51.282;22.494;2024-01-06T02:45:17;98317.53;;;-2.39;100.00
75650;BME280;64245;51.282;22.494;2024-01-06T02:47:43;98322.13;;;-2.43;100.00
75650;BME280;64245;51.282;22.494;2024-01-06T02:50:09;98323.81;;;-2.42;100.00
75650;BME280;64245;51.282;22.494;2024-01-06T02:52:35;98309.28;;;-2.33;100.00
75650;BME280;64245;51.282;22.494;2024-01-06T02:55:03;98311.13;;;-2.35;100.00
75650;BME280;64245;51.282;22.494;2024-01-06T02:57:30;98297.03;;;-2.50;100.00
75650;BME280;64245;51.282;22.494;2024-01-06T02:59:55;98321.69;;;-2.35;100.00
75650;BME280;64245;51.282;22.494;2024-01-06T03:02:22;98313.31;;;-2.28;100.00
75650;BME280;64245;51.282;22.494;2024-01-06T03:04:47;98318.38;;;-2.39;100.00
75650;BME280;64245;51.282;22.494;2024-01-06T03:07:13;98311.75;;;-2.46;100.00
75650;BME280;64245;51.282;22.494;2024-01-06T03:09:45;98309.03;;;-2.45;100.00
75650;BME280;64245;51.282;22.494;2024-01-06T03:12:11;98294.84;;;-2.28;100.00
75650;BME280;64245;51.282;22.494;2024-01-06T03:14:37;98307.41;;;-2.31;100.00
75650;BME280;64245;51.282;22.494;2024-01-06T03:17:03;98313.28;;;-2.42;100.00
75650;BME280;64245;51.282;22.494;2024-01-06T03:19:30;98313.34;;;-2.44;100.00
75650;BME280;64245;51.282;22.494;2024-01-06T03:21:56;98314.66;;;-2.51;100.00
75650;BME280;64245;51.282;22.494;2024-01-06T03:24:23;98313.44;;;-2.45;100.00
75650;BME280;64245;51.282;22.494;2024-01-06T03:26:49;98326.88;;;-2.34;100.00
75650;BME280;64245;51.282;22.494;2024-01-06T03:29:15;98347.63;;;-2.44;100.00
75650;BME280;64245;51.282;22.494;2024-01-06T03:31:46;98340.22;;;-2.37;100.00
75650;BME280;64245;51.282;22.494;2024-01-06T03:34:12;98343.25;;;-2.29;100.00
75650;BME280;64245;51.282;22.494;2024-01-06T03:36:39;98361.63;;;-2.27;100.00
75650;BME280;64245;51.282;22.494;2024-01-06T03:39:05;98353.13;;;-2.17;100.00
75650;BME280;64245;51.282;22.494;2024-01-06T03:41:31;98350.09;;;-2.11;100.00
75650;BME280;64245;51.282;22.494;2024-01-06T03:43:57;98347.09;;;-2.19;100.00
75650;BME280;64245;51.282;22.494;2024-01-06T03:46:26;98346.06;;;-2.16;100.00
75650;BME280;64245;51.282;22.494;2024-01-06T03:48:52;98344.19;;;-2.14;100.00
75650;BME280;64245;51.282;22.494;2024-01-06T03:51:18;98331.50;;;-2.23;100.00
75650;BME280;64245;51.282;22.494;2024-01-06T03:53:43;98326.91;;;-2.20;100.00
75650;BME280;64245;51.282;22.494;2024-01-06T03:56:13;98334.09;;;-2.08;100.00
75650;BME280;64245;51.282;22.494;2024-01-06T03:58:38;98328.63;;;-2.19;100.00
75650;BME280;64245;51.282;22.494;2024-01-06T04:01:04;98327.09;;;-2.23;100.00
75650;BME280;64245;51.282;22.494;2024-01-06T04:03:30;98329.72;;;-2.23;100.00
75650;BME280;64245;51.282;22.494;2024-01-06T04:05:55;98325.47;;;-2.25;100.00
75650;BME280;64245;51.282;22.494;2024-01-06T04:08:21;98322.06;;;-2.27;100.00
75650;BME280;64245;51.282;22.494;2024-01-06T04:10:47;98318.28;;;-2.37;100.00
75650;BME280;64245;51.282;22.494;2024-01-06T04:13:13;98325.47;;;-2.25;100.00
75650;BME280;64245;51.282;22.494;2024-01-06T04:15:42;98309.06;;;-2.30;100.00
75650;BME280;64245;51.282;22.494;2024-01-06T04:18:07;98323.78;;;-2.26;100.00
75650;BME280;64245;51.282;22.494;2024-01-06T04:20:36;98325.84;;;-2.31;100.00
75650;BME280;64245;51.282;22.494;2024-01-06T04:23:02;98323.47;;;-2.36;100.00
75650;BME280;64245;51.282;22.494;2024-01-06T04:25:28;98331.94;;;-2.31;100.00
75650;BME280;64245;51.282;22.494;2024-01-06T04:27:53;98321.59;;;-2.34;100.00
75650;BME280;64245;51.282;22.494;2024-01-06T04:30:19;98327.34;;;-2.27;100.00
75650;BME280;64245;51.282;22.494;2024-01-06T04:32:45;98326.78;;;-2.32;100.00
75650;BME280;64245;51.282;22.494;2024-01-06T04:35:14;98316.03;;;-2.29;100.00
75650;BME280;64245;51.282;22.494;2024-01-06T04:37:39;98308.53;;;-2.21;100.00
75650;BME280;64245;51.282;22.494;2024-01-06T04:40:06;98297.50;;;-2.28;100.00
75650;BME280;64245;51.282;22.494;2024-01-06T04:42:33;98310.06;;;-2.17;100.00
75650;BME280;64245;51.282;22.494;2024-01-06T04:44:59;98316.03;;;-2.14;100.00
75650;BME280;64245;51.282;22.494;2024-01-06T04:47:24;98325.91;;;-2.17;100.00
75650;BME280;64245;51.282;22.494;2024-01-06T04:49:50;98329.47;;;-2.18;100.00
75650;BME280;64245;51.282;22.494;2024-01-06T04:52:16;98335.59;;;-2.18;100.00
75650;BME280;64245;51.282;22.494;2024-01-06T04:54:42;98346.22;;;-2.19;100.00
75650;BME280;64245;51.282;22.494;2024-01-06T04:57:07;98342.66;;;-2.18;100.00
75650;BME280;64245;51.282;22.494;2024-01-06T04:59:33;98331.34;;;-2.20;100.00
75650;BME280;64245;51.282;22.494;2024-01-06T05:01:58;98323.31;;;-2.33;100.00
75650;BME280;64245;51.282;22.494;2024-01-06T05:04:24;98336.75;;;-2.37;100.00
75650;BME280;64245;51.282;22.494;2024-01-06T05:06:53;98339.97;;;-2.32;100.00
75650;BME280;64245;51.282;22.494;2024-01-06T05:09:20;98338.63;;;-2.39;100.00
75650;BME280;64245;51.282;22.494;2024-01-06T05:11:45;98336.56;;;-2.34;100.00
75650;BME280;64245;51.282;22.494;2024-01-06T05:14:11;98330.50;;;-2.21;100.00
75650;BME280;64245;51.282;22.494;2024-01-06T05:16:37;98328.56;;;-2.33;100.00
75650;BME280;64245;51.282;22.494;2024-01-06T05:19:03;98330.53;;;-2.36;100.00
75650;BME280;64245;51.282;22.494;2024-01-06T05:21:29;98339.56;;;-2.40;100.00
75650;BME280;64245;51.282;22.494;2024-01-06T05:23:55;98337.75;;;-2.40;100.00
75650;BME280;64245;51.282;22.494;2024-01-06T05:26:21;98336.22;;;-2.44;100.00
75650;BME280;64245;51.282;22.494;2024-01-06T05:28:47;98322.19;;;-2.45;100.00
75650;BME280;64245;51.282;22.494;2024-01-06T05:31:12;98347.28;;;-2.37;100.00
75650;BME280;64245;51.282;22.494;2024-01-06T05:33:38;98349.16;;;-2.39;100.00
75650;BME280;64245;51.282;22.494;2024-01-06T05:36:04;98357.38;;;-2.30;100.00
75650;BME280;64245;51.282;22.494;2024-01-06T05:38:30;98356.81;;;-2.35;100.00
75650;BME280;64245;51.282;22.494;2024-01-06T05:40:55;98353.72;;;-2.27;100.00
75650;BME280;64245;51.282;22.494;2024-01-06T05:43:21;98354.84;;;-2.31;100.00
75650;BME280;64245;51.282;22.494;2024-01-06T05:45:47;98356.72;;;-2.33;100.00
75650;BME280;64245;51.282;22.494;2024-01-06T05:48:13;98363.19;;;-2.39;100.00
75650;BME280;64245;51.282;22.494;2024-01-06T05:50:40;98362.75;;;-2.31;100.00
75650;BME280;64245;51.282;22.494;2024-01-06T05:53:07;98361.81;;;-2.30;100.00
75650;BME280;64245;51.282;22.494;2024-01-06T05:55:34;98355.59;;;-2.29;100.00
75650;BME280;64245;51.282;22.494;2024-01-06T05:58:00;98353.03;;;-2.31;100.00
75650;BME280;64245;51.282;22.494;2024-01-06T06:00:26;98343.13;;;-2.41;100.00
75650;BME280;64245;51.282;22.494;2024-01-06T06:02:52;98345.06;;;-2.45;100.00
75650;BME280;64245;51.282;22.494;2024-01-06T06:05:18;98347.53;;;-2.42;100.00
75650;BME280;64245;51.282;22.494;2024-01-06T06:07:44;98349.47;;;-2.30;100.00
75650;BME280;64245;51.282;22.494;2024-01-06T06:10:10;98352.78;;;-2.26;100.00
75650;BME280;64245;51.282;22.494;2024-01-06T06:12:37;98350.81;;;-2.23;100.00
75650;BME280;64245;51.282;22.494;2024-01-06T06:15:03;98345.63;;;-2.24;100.00
75650;BME280;64245;51.282;22.494;2024-01-06T06:17:30;98360.59;;;-2.25;100.00
75650;BME280;64245;51.282;22.494;2024-01-06T06:19:57;98363.50;;;-2.29;100.00
75650;BME280;64245;51.282;22.494;2024-01-06T06:22:23;98364.09;;;-2.24;100.00
75650;BME280;64245;51.282;22.494;2024-01-06T06:24:51;98362.84;;;-2.33;100.00
75650;BME280;64245;51.282;22.494;2024-01-06T06:27:17;98365.41;;;-2.31;100.00
75650;BME280;64245;51.282;22.494;2024-01-06T06:29:43;98362.16;;;-2.36;100.00
75650;BME280;64245;51.282;22.494;2024-01-06T06:32:09;98374.50;;;-2.37;100.00
75650;BME280;64245;51.282;22.494;2024-01-06T06:34:37;98378.75;;;-2.34;100.00
75650;BME280;64245;51.282;22.494;2024-01-06T06:37:03;98381.22;;;-2.31;100.00
75650;BME280;64245;51.282;22.494;2024-01-06T06:39:29;98377.13;;;-2.37;100.00
75650;BME280;64245;51.282;22.494;2024-01-06T06:41:56;98387.22;;;-2.29;100.00
75650;BME280;64245;51.282;22.494;2024-01-06T06:44:22;98378.81;;;-2.20;100.00
75650;BME280;64245;51.282;22.494;2024-01-06T06:46:49;98374.38;;;-2.20;100.00
75650;BME280;64245;51.282;22.494;2024-01-06T06:49:14;98385.53;;;-2.15;100.00
75650;BME280;64245;51.282;22.494;2024-01-06T06:51:40;98393.88;;;-2.22;100.00
75650;BME280;64245;51.282;22.494;2024-01-06T06:54:12;98383.31;;;-2.22;100.00
75650;BME280;64245;51.282;22.494;2024-01-06T06:56:38;98384.84;;;-2.18;100.00
75650;BME280;64245;51.282;22.494;2024-01-06T06:59:05;98383.50;;;-2.25;100.00
75650;BME280;64245;51.282;22.494;2024-01-06T07:01:31;98381.88;;;-2.28;100.00
75650;BME280;64245;51.282;22.494;2024-01-06T07:03:56;98399.66;;;-2.16;100.00
75650;BME280;64245;51.282;22.494;2024-01-06T07:06:23;98381.88;;;-2.28;100.00
75650;BME280;64245;51.282;22.494;2024-01-06T07:08:48;98391.16;;;-2.21;100.00
75650;BME280;64245;51.282;22.494;2024-01-06T07:11:14;98393.16;;;-2.10;100.00
75650;BME280;64245;51.282;22.494;2024-01-06T07:13:43;98390.44;;;-2.09;100.00
75650;BME280;64245;51.282;22.494;2024-01-06T07:16:09;98391.13;;;-2.05;100.00
75650;BME280;64245;51.282;22.494;2024-01-06T07:18:35;98401.53;;;-1.88;100.00
75650;BME280;64245;51.282;22.494;2024-01-06T07:21:00;98395.31;;;-1.87;100.00
75650;BME280;64245;51.282;22.494;2024-01-06T07:23:26;98397.63;;;-1.81;100.00
75650;BME280;64245;51.282;22.494;2024-01-06T07:25:52;98409.31;;;-1.70;100.00
75650;BME280;64245;51.282;22.494;2024-01-06T07:28:17;98400.06;;;-1.78;100.00
75650;BME280;64245;51.282;22.494;2024-01-06T07:30:43;98414.47;;;-1.83;100.00
75650;BME280;64245;51.282;22.494;2024-01-06T07:33:09;98411.75;;;-1.82;100.00
75650;BME280;64245;51.282;22.494;2024-01-06T07:35:37;98410.38;;;-1.89;100.00
75650;BME280;64245;51.282;22.494;2024-01-06T07:38:02;98410.56;;;-1.92;100.00
75650;BME280;64245;51.282;22.494;2024-01-06T07:40:28;98407.69;;;-1.73;100.00
75650;BME280;64245;51.282;22.494;2024-01-06T07:42:54;98414.22;;;-1.79;100.00
75650;BME280;64245;51.282;22.494;2024-01-06T07:45:20;98407.66;;;-1.87;100.00
75650;BME280;64245;51.282;22.494;2024-01-06T07:47:45;98413.34;;;-1.79;100.00
75650;BME280;64245;51.282;22.494;2024-01-06T07:50:11;98421.09;;;-1.76;100.00
75650;BME280;64245;51.282;22.494;2024-01-06T07:52:37;98410.53;;;-1.76;100.00
75650;BME280;64245;51.282;22.494;2024-01-06T07:55:03;98420.16;;;-1.75;100.00
75650;BME280;64245;51.282;22.494;2024-01-06T07:57:28;98415.19;;;-1.65;100.00
75650;BME280;64245;51.282;22.494;2024-01-06T07:59:54;98430.44;;;-1.70;100.00
75650;BME280;64245;51.282;22.494;2024-01-06T08:02:20;98422.22;;;-1.80;100.00
75650;BME280;64245;51.282;22.494;2024-01-06T08:04:46;98419.22;;;-1.74;100.00
75650;BME280;64245;51.282;22.494;2024-01-06T08:07:11;98421.03;;;-1.60;100.00
75650;BME280;64245;51.282;22.494;2024-01-06T08:09:43;98420.03;;;-1.44;100.00
75650;BME280;64245;51.282;22.494;2024-01-06T08:12:08;98427.28;;;-1.47;100.00
75650;BME280;64245;51.282;22.494;2024-01-06T08:14:34;98425.22;;;-1.42;100.00
75650;BME280;64245;51.282;22.494;2024-01-06T08:17:01;98432.13;;;-1.40;100.00
75650;BME280;64245;51.282;22.494;2024-01-06T08:19:27;98432.50;;;-1.31;100.00
75650;BME280;64245;51.282;22.494;2024-01-06T08:21:55;98427.28;;;-1.47;100.00
75650;BME280;64245;51.282;22.494;2024-01-06T08:24:21;98436.09;;;-1.32;100.00
75650;BME280;64245;51.282;22.494;2024-01-06T08:26:47;98429.22;;;-1.35;100.00
75650;BME280;64245;51.282;22.494;2024-01-06T08:29:13;98428.63;;;-1.40;100.00
75650;BME280;64245;51.282;22.494;2024-01-06T08:31:40;98432.97;;;-1.39;100.00
75650;BME280;64245;51.282;22.494;2024-01-06T08:34:05;98438.09;;;-1.36;100.00
75650;BME280;64245;51.282;22.494;2024-01-06T08:36:34;98441.19;;;-1.29;100.00
75650;BME280;64245;51.282;22.494;2024-01-06T08:39:00;98437.59;;;-1.28;100.00
75650;BME280;64245;51.282;22.494;2024-01-06T08:41:25;98440.06;;;-1.40;100.00
75650;BME280;64245;51.282;22.494;2024-01-06T08:43:51;98446.34;;;-1.42;100.00
75650;BME280;64245;51.282;22.494;2024-01-06T08:46:18;98447.97;;;-1.40;100.00
75650;BME280;64245;51.282;22.494;2024-01-06T08:48:44;98450.53;;;-1.38;100.00
75650;BME280;64245;51.282;22.494;2024-01-06T08:51:09;98455.81;;;-1.38;100.00
75650;BME280;64245;51.282;22.494;2024-01-06T08:53:35;98458.81;;;-1.44;100.00
75650;BME280;64245;51.282;22.494;2024-01-06T08:56:01;98457.94;;;-1.45;100.00
75650;BME280;64245;51.282;22.494;2024-01-06T08:58:27;98459.38;;;-1.39;100.00
75650;BME280;64245;51.282;22.494;2024-01-06T09:00:52;98453.53;;;-1.30;100.00
75650;BME280;64245;51.282;22.494;2024-01-06T09:03:19;98463.56;;;-1.35;100.00
75650;BME280;64245;51.282;22.494;2024-01-06T09:05:52;98463.84;;;-1.25;100.00
75650;BME280;64245;51.282;22.494;2024-01-06T09:08:18;98467.50;;;-1.28;100.00
75650;BME280;64245;51.282;22.494;2024-01-06T09:10:44;98469.56;;;-1.33;100.00
75650;BME280;64245;51.282;22.494;2024-01-06T09:13:10;98473.66;;;-1.13;100.00
75650;BME280;64245;51.282;22.494;2024-01-06T09:15:35;98464.25;;;-1.17;100.00
75650;BME280;64245;51.282;22.494;2024-01-06T09:18:01;98478.31;;;-1.02;100.00
75650;BME280;64245;51.282;22.494;2024-01-06T09:20:28;98488.03;;;-1.17;100.00
75650;BME280;64245;51.282;22.494;2024-01-06T09:22:54;98486.69;;;-1.10;100.00
75650;BME280;64245;51.282;22.494;2024-01-06T09:25:19;98479.63;;;-1.10;100.00
75650;BME280;64245;51.282;22.494;2024-01-06T09:27:48;98470.75;;;-1.09;100.00
75650;BME280;64245;51.282;22.494;2024-01-06T09:30:14;98477.06;;;-1.11;100.00
75650;BME280;64245;51.282;22.494;2024-01-06T09:32:40;98471.84;;;-1.27;100.00
75650;BME280;64245;51.282;22.494;2024-01-06T09:35:06;98459.22;;;-1.22;100.00
75650;BME280;64245;51.282;22.494;2024-01-06T09:37:32;98471.88;;;-1.13;100.00
75650;BME280;64245;51.282;22.494;2024-01-06T09:39:57;98466.31;;;-1.08;100.00
75650;BME280;64245;51.282;22.494;2024-01-06T09:42:23;98466.97;;;-1.19;100.00
75650;BME280;64245;51.282;22.494;2024-01-06T09:44:49;98474.06;;;-1.19;100.00
75650;BME280;64245;51.282;22.494;2024-01-06T09:47:18;98475.69;;;-1.32;100.00
75650;BME280;64245;51.282;22.494;2024-01-06T09:49:48;98484.19;;;-1.42;100.00
75650;BME280;64245;51.282;22.494;2024-01-06T09:52:15;98480.53;;;-1.25;100.00
75650;BME280;64245;51.282;22.494;2024-01-06T09:54:54;98482.69;;;-1.31;100.00
75650;BME280;64245;51.282;22.494;2024-01-06T09:57:20;98487.97;;;-1.31;100.00
75650;BME280;64245;51.282;22.494;2024-01-06T09:59:45;98486.50;;;-1.21;100.00
75650;BME280;64245;51.282;22.494;2024-01-06T10:02:17;98489.72;;;-1.16;100.00
75650;BME280;64245;51.282;22.494;2024-01-06T10:05:07;98483.59;;;-1.17;100.00
75650;BME280;64245;51.282;22.494;2024-01-06T10:07:33;98486.19;;;-1.31;100.00
75650;BME280;64245;51.282;22.494;2024-01-06T10:09:59;98487.75;;;-1.43;100.00
75650;BME280;64245;51.282;22.494;2024-01-06T10:12:25;98485.97;;;-1.42;100.00
75650;BME280;64245;51.282;22.494;2024-01-06T10:14:51;98488.03;;;-1.47;100.00
75650;BME280;64245;51.282;22.494;2024-01-06T10:17:18;98489.03;;;-1.50;100.00
75650;BME280;64245;51.282;22.494;2024-01-06T10:19:45;98486.69;;;-1.54;100.00
75650;BME280;64245;51.282;22.494;2024-01-06T10:22:11;98484.34;;;-1.45;100.00
75650;BME280;64245;51.282;22.494;2024-01-06T10:24:37;98485.63;;;-1.36;100.00
75650;BME280;64245;51.282;22.494;2024-01-06T10:27:06;98475.44;;;-1.28;100.00
75650;BME280;64245;51.282;22.494;2024-01-06T10:29:32;98472.44;;;-1.22;100.00
75650;BME280;64245;51.282;22.494;2024-01-06T10:31:58;98470.81;;;-1.24;100.00
75650;BME280;64245;51.282;22.494;2024-01-06T10:34:24;98472.78;;;-1.28;100.00
75650;BME280;64245;51.282;22.494;2024-01-06T10:36:51;98481.44;;;-1.40;100.00
75650;BME280;64245;51.282;22.494;2024-01-06T10:39:19;98470.97;;;-1.42;100.00
75650;BME280;64245;51.282;22.494;2024-01-06T10:41:48;98476.53;;;-1.46;100.00
75650;BME280;64245;51.282;22.494;2024-01-06T10:44:14;98468.91;;;-1.36;100.00
75650;BME280;64245;51.282;22.494;2024-01-06T10:46:41;98468.63;;;-1.32;100.00
75650;BME280;64245;51.282;22.494;2024-01-06T10:49:08;98473.06;;;-1.32;100.00
75650;BME280;64245;51.282;22.494;2024-01-06T10:51:37;98457.19;;;-1.47;100.00
75650;BME280;64245;51.282;22.494;2024-01-06T10:54:05;98460.50;;;-1.43;100.00
75650;BME280;64245;51.282;22.494;2024-01-06T10:56:37;98461.97;;;-1.23;100.00
75650;BME280;64245;51.282;22.494;2024-01-06T10:59:04;98469.63;;;-1.19;100.00
75650;BME280;64245;51.282;22.494;2024-01-06T11:01:32;98467.34;;;-1.25;100.00
75650;BME280;64245;51.282;22.494;2024-01-06T11:03:59;98460.16;;;-1.37;100.00
75650;BME280;64245;51.282;22.494;2024-01-06T11:06:25;98462.72;;;-1.21;100.00
75650;BME280;64245;51.282;22.494;2024-01-06T11:09:11;98453.38;;;-1.27;100.00
75650;BME280;64245;51.282;22.494;2024-01-06T11:11:40;98441.44;;;-1.34;100.00
75650;BME280;64245;51.282;22.494;2024-01-06T11:14:23;98441.66;;;-1.37;100.00
75650;BME280;64245;51.282;22.494;2024-01-06T11:16:50;98453.44;;;-1.28;100.00
75650;BME280;64245;51.282;22.494;2024-01-06T11:22:29;98455.16;;;-1.27;100.00
75650;BME280;64245;51.282;22.494;2024-01-06T11:25:04;98461.84;;;-1.36;100.00
75650;BME280;64245;51.282;22.494;2024-01-06T11:27:31;98461.78;;;-1.20;100.00
75650;BME280;64245;51.282;22.494;2024-01-06T11:29:58;98458.19;;;-1.19;100.00
75650;BME280;64245;51.282;22.494;2024-01-06T11:32:35;98460.19;;;-1.09;100.00
75650;BME280;64245;51.282;22.494;2024-01-06T11:35:07;98457.44;;;-1.07;100.00
75650;BME280;64245;51.282;22.494;2024-01-06T11:42:35;98441.38;;;-1.32;100.00
75650;BME280;64245;51.282;22.494;2024-01-06T11:45:02;98437.34;;;-1.24;100.00
75650;BME280;64245;51.282;22.494;2024-01-06T11:47:28;98444.75;;;-1.30;100.00
75650;BME280;64245;51.282;22.494;2024-01-06T11:49:56;98448.16;;;-1.28;100.00
75650;BME280;64245;51.282;22.494;2024-01-06T11:52:24;98453.94;;;-1.36;100.00
75650;BME280;64245;51.282;22.494;2024-01-06T11:54:52;98430.75;;;-1.61;100.00
75650;BME280;64245;51.282;22.494;2024-01-06T11:57:19;98457.94;;;-1.45;100.00
75650;BME280;64245;51.282;22.494;2024-01-06T11:59:47;98461.34;;;-1.43;100.00
75650;BME280;64245;51.282;22.494;2024-01-06T12:02:13;98461.34;;;-1.43;100.00
75650;BME280;64245;51.282;22.494;2024-01-06T12:04:42;98460.91;;;-1.35;100.00
75650;BME280;64245;51.282;22.494;2024-01-06T12:07:09;98459.22;;;-1.22;100.00
75650;BME280;64245;51.282;22.494;2024-01-06T12:09:35;98455.06;;;-1.12;100.00
75650;BME280;64245;51.282;22.494;2024-01-06T12:12:07;98457.16;;;-1.17;100.00
75650;BME280;64245;51.282;22.494;2024-01-06T12:14:33;98460.00;;;-1.20;100.00
75650;BME280;64245;51.282;22.494;2024-01-06T12:17:04;98453.78;;;-1.19;100.00
75650;BME280;64245;51.282;22.494;2024-01-06T12:19:30;98463.56;;;-1.21;100.00
75650;BME280;64245;51.282;22.494;2024-01-06T12:22:01;98465.13;;;-1.32;100.00
75650;BME280;64245;51.282;22.494;2024-01-06T12:24:28;98452.78;;;-1.32;100.00
75650;BME280;64245;51.282;22.494;2024-01-06T12:26:58;98462.72;;;-1.21;100.00
75650;BME280;64245;51.282;22.494;2024-01-06T12:29:28;98439.97;;;-1.38;100.00
75650;BME280;64245;51.282;22.494;2024-01-06T12:32:01;98457.63;;;-1.24;100.00
75650;BME280;64245;51.282;22.494;2024-01-06T12:34:27;98471.25;;;-1.32;100.00
75650;BME280;64245;51.282;22.494;2024-01-06T12:36:53;98482.66;;;-1.46;100.00
75650;BME280;64245;51.282;22.494;2024-01-06T12:39:20;98483.69;;;-1.48;100.00
75650;BME280;64245;51.282;22.494;2024-01-06T12:41:46;98483.09;;;-1.53;100.00
75650;BME280;64245;51.282;22.494;2024-01-06T12:44:14;98478.00;;;-1.56;100.00
75650;BME280;64245;51.282;22.494;2024-01-06T12:46:40;98488.75;;;-1.59;100.00